createdAt,value
2023-03-27T00:04:18.653Z,0
2023-03-27T00:09:19.556Z,0
2023-03-27T00:14:23.549Z,0
2023-03-27T00:19:25.810Z,0
2023-03-27T00:24:29.982Z,0
2023-03-27T00:29:34.155Z,0
2023-03-27T00:34:38.301Z,0
2023-03-27T00:39:42.489Z,0
2023-03-27T00:44:46.597Z,0
2023-03-27T00:49:50.803Z,0
2023-03-27T00:54:54.986Z,0
2023-03-27T00:59:59.158Z,0
2023-03-27T01:05:03.283Z,0
2023-03-27T01:10:07.486Z,0
2023-03-27T01:15:11.596Z,0
2023-03-27T01:20:15.778Z,0
2023-03-27T01:25:19.954Z,0
2023-03-27T01:30:24.243Z,0
2023-03-27T01:35:28.303Z,0
2023-03-27T01:40:32.443Z,0
2023-03-27T01:45:36.632Z,0
2023-03-27T01:50:40.770Z,0
2023-03-27T01:55:44.948Z,0
2023-03-27T02:05:53.297Z,0
2023-03-27T02:10:55.747Z,0
2023-03-27T02:15:59.791Z,0
2023-03-27T02:21:01.986Z,0
2023-03-27T02:26:06.203Z,0
2023-03-27T02:31:33.669Z,0
2023-03-27T02:36:14.505Z,0
2023-03-27T02:41:18.686Z,0
2023-03-27T02:46:22.927Z,0
2023-03-27T02:56:31.321Z,0
2023-03-27T03:01:35.368Z,0
2023-03-27T03:06:39.495Z,0
2023-03-27T03:11:43.660Z,0
2023-03-27T03:16:47.870Z,0
2023-03-27T03:21:52.008Z,0
2023-03-27T03:26:56.150Z,0
2023-03-27T03:32:00.312Z,0
2023-03-27T03:37:04.505Z,0
2023-03-27T03:42:08.682Z,0
2023-03-27T03:52:16.958Z,0
2023-03-27T03:57:19.326Z,0
2023-03-27T04:02:30.557Z,0
2023-03-27T04:07:41.614Z,0
2023-03-27T04:12:52.764Z,0
2023-03-27T04:18:04.025Z,0
2023-03-27T04:23:15.143Z,0
2023-03-27T04:28:24.408Z,0
2023-03-27T04:33:30.612Z,0
2023-03-27T04:38:32.744Z,0
2023-03-27T04:43:37.036Z,0
2023-03-27T04:48:41.067Z,0
2023-03-27T04:53:45.241Z,0
2023-03-27T04:58:49.404Z,2
2023-03-27T05:03:53.566Z,6
2023-03-27T05:08:57.742Z,17
2023-03-27T05:14:01.868Z,37
2023-03-27T05:19:06.024Z,80
2023-03-27T05:24:10.244Z,137
2023-03-27T05:29:14.429Z,220
2023-03-27T05:34:18.591Z,353
2023-03-27T05:39:22.727Z,514
2023-03-27T05:44:26.892Z,570
2023-03-27T05:49:32.412Z,752
2023-03-27T05:54:35.223Z,844
2023-03-27T05:59:39.407Z,957
2023-03-27T06:04:43.609Z,979
2023-03-27T06:09:47.724Z,974
2023-03-27T06:14:49.994Z,1190
2023-03-27T06:19:54.158Z,1340
2023-03-27T06:24:58.353Z,1220
2023-03-27T06:30:00.604Z,1232
2023-03-27T06:35:04.756Z,1137
2023-03-27T06:40:08.946Z,1340
2023-03-27T06:45:13.106Z,1407
2023-03-27T06:50:17.266Z,1499
2023-03-27T06:55:21.423Z,1535
2023-03-27T07:00:25.599Z,1551
2023-03-27T07:05:29.762Z,1540
2023-03-27T07:10:33.938Z,1645
2023-03-27T07:15:38.085Z,1739
2023-03-27T07:20:42.279Z,1830
2023-03-27T07:25:46.449Z,1948
2023-03-27T07:30:50.598Z,2376
2023-03-27T07:35:54.932Z,2308
2023-03-27T07:40:58.926Z,2210
2023-03-27T07:46:03.170Z,1985
2023-03-27T07:51:13.760Z,2179
2023-03-27T07:56:11.405Z,2397
2023-03-27T08:01:15.579Z,2622
2023-03-27T08:06:19.717Z,3926
2023-03-27T08:11:30.593Z,3529
2023-03-27T08:16:26.214Z,2634
2023-03-27T08:21:30.356Z,4555
2023-03-27T08:26:32.614Z,3895
2023-03-27T08:31:36.780Z,8480
2023-03-27T08:36:40.933Z,4381
2023-03-27T08:41:45.140Z,6774
2023-03-27T08:51:53.429Z,6305
2023-03-27T08:56:57.598Z,3110
2023-03-27T09:02:01.799Z,4194
2023-03-27T09:07:05.911Z,3518
2023-03-27T09:12:10.068Z,3510
2023-03-27T09:17:14.261Z,4693
2023-03-27T09:22:18.388Z,5773
2023-03-27T09:27:22.585Z,6145
2023-03-27T09:32:26.760Z,7830
2023-03-27T09:37:30.848Z,4320
2023-03-27T09:42:35.106Z,5819
2023-03-27T09:47:39.263Z,7850
2023-03-27T09:52:43.387Z,7379
2023-03-27T09:57:47.523Z,6030
2023-03-27T10:02:51.748Z,6058
2023-03-27T10:07:55.866Z,6721
2023-03-27T10:13:00.031Z,4717
2023-03-27T10:18:02.324Z,8439
2023-03-27T10:23:06.553Z,6195
2023-03-27T10:28:08.802Z,3703
2023-03-27T10:33:12.998Z,3950
2023-03-27T10:38:17.201Z,4550
2023-03-27T10:43:21.248Z,3380
2023-03-27T10:48:25.413Z,7786
2023-03-27T10:53:29.677Z,8767
2023-03-27T11:03:37.846Z,2299
2023-03-27T11:08:41.974Z,2904
2023-03-27T11:13:46.115Z,7163
2023-03-27T11:18:50.338Z,8495
2023-03-27T11:23:54.511Z,7667
2023-03-27T11:28:58.620Z,9180
2023-03-27T11:34:02.766Z,7073
2023-03-27T11:39:06.954Z,7080
2023-03-27T11:44:11.104Z,8251
2023-03-27T11:49:15.259Z,12009
2023-03-27T11:54:19.532Z,5620
2023-03-27T11:59:23.586Z,4491
2023-03-27T12:04:27.741Z,6320
2023-03-27T12:09:31.950Z,2839
2023-03-27T12:19:40.248Z,2499
2023-03-27T12:24:57.172Z,3730
2023-03-27T12:29:46.648Z,3591
2023-03-27T12:34:48.969Z,2040
2023-03-27T12:39:53.144Z,2671
2023-03-27T12:44:59.467Z,4376
2023-03-27T12:50:01.410Z,10015
2023-03-27T12:55:05.587Z,8088
2023-03-27T13:00:09.789Z,6990
2023-03-27T13:05:26.261Z,6078
2023-03-27T13:10:18.101Z,2916
2023-03-27T13:15:22.256Z,5904
2023-03-27T13:20:26.412Z,3779
2023-03-27T13:25:30.604Z,3670
2023-03-27T13:30:34.742Z,4630
2023-03-27T13:35:38.924Z,7883
2023-03-27T13:40:43.294Z,6731
2023-03-27T13:45:47.242Z,5173
2023-03-27T13:50:51.422Z,7252
2023-03-27T13:55:55.712Z,7155
2023-03-27T14:00:59.724Z,8381
2023-03-27T14:06:05.910Z,3725
2023-03-27T14:11:09.084Z,2752
2023-03-27T14:16:12.304Z,3135
2023-03-27T14:21:16.414Z,2826
2023-03-27T14:26:18.734Z,2345
2023-03-27T14:31:20.956Z,2435
2023-03-27T14:36:25.107Z,2494
2023-03-27T14:41:29.215Z,2515
2023-03-27T14:46:33.476Z,2625
2023-03-27T14:51:37.565Z,2909
2023-03-27T14:56:41.773Z,4531
2023-03-27T15:01:45.920Z,10765
2023-03-27T15:06:50.176Z,5959
2023-03-27T15:11:54.341Z,6167
2023-03-27T15:16:58.449Z,3893
2023-03-27T15:22:02.535Z,2805
2023-03-27T15:27:06.758Z,3010
2023-03-27T15:32:10.930Z,1650
2023-03-27T15:37:15.084Z,821
2023-03-27T15:42:19.318Z,1473
2023-03-27T15:47:23.568Z,3226
2023-03-27T15:52:27.525Z,1935
2023-03-27T15:57:31.756Z,1828
2023-03-27T16:02:35.898Z,1272
2023-03-27T16:07:40.037Z,2418
2023-03-27T16:12:44.181Z,2012
2023-03-27T16:17:46.466Z,2216
2023-03-27T16:22:50.587Z,2456
2023-03-27T16:27:54.798Z,3218
2023-03-27T16:32:57.146Z,3115
2023-03-27T16:38:01.231Z,2204
2023-03-27T16:43:05.343Z,2801
2023-03-27T16:48:09.570Z,3684
2023-03-27T16:53:13.767Z,1875
2023-03-27T16:58:17.826Z,4956
2023-03-27T17:03:22.010Z,1923
2023-03-27T17:08:26.189Z,3510
2023-03-27T17:13:30.332Z,1238
2023-03-27T17:18:34.504Z,1199
2023-03-27T17:23:38.693Z,1178
2023-03-27T17:28:42.823Z,1360
2023-03-27T17:33:47.086Z,891
2023-03-27T17:38:51.173Z,666
2023-03-27T17:43:55.300Z,537
2023-03-27T17:48:59.488Z,409
2023-03-27T17:54:03.636Z,292
2023-03-27T17:59:07.828Z,189
2023-03-27T18:04:12.039Z,113
2023-03-27T18:09:16.148Z,62
2023-03-27T18:14:20.331Z,25
2023-03-27T18:19:22.607Z,11
2023-03-27T18:24:26.763Z,4
2023-03-27T18:29:29.024Z,0
2023-03-27T18:34:33.206Z,0
2023-03-27T18:39:37.434Z,0
2023-03-27T18:44:41.520Z,0
2023-03-27T18:49:45.689Z,0
2023-03-27T18:54:49.852Z,0
2023-03-27T18:59:53.973Z,0
2023-03-27T19:04:58.178Z,0
2023-03-27T19:10:02.317Z,0
2023-03-27T19:15:17.261Z,0
2023-03-27T19:25:14.808Z,0
2023-03-27T19:30:18.998Z,0
2023-03-27T19:35:23.410Z,0
2023-03-27T19:40:27.353Z,0
2023-03-27T19:45:31.464Z,0
2023-03-27T19:50:35.663Z,0
2023-03-27T19:55:39.822Z,0
2023-03-27T20:00:44.011Z,0
2023-03-27T20:05:48.138Z,0
2023-03-27T20:10:52.318Z,0
2023-03-27T20:15:56.900Z,0
2023-03-27T20:20:58.873Z,0
2023-03-27T20:26:02.930Z,0
2023-03-27T20:31:07.097Z,0
2023-03-27T20:36:11.302Z,0
2023-03-27T20:41:13.496Z,0
2023-03-27T20:46:17.706Z,0
2023-03-27T20:51:21.863Z,0
2023-03-27T20:56:26.069Z,0
2023-03-27T21:01:30.220Z,0
2023-03-27T21:06:34.356Z,0
2023-03-27T21:11:38.489Z,0
2023-03-27T21:16:42.746Z,0
2023-03-27T21:21:46.868Z,0
2023-03-27T21:26:51.094Z,0
2023-03-27T21:31:55.252Z,0
2023-03-27T21:36:59.393Z,0
2023-03-27T21:42:03.502Z,0
2023-03-27T21:47:07.671Z,0
2023-03-27T21:52:11.840Z,0
2023-03-27T21:57:16.016Z,0
2023-03-27T22:02:20.264Z,0
2023-03-27T22:07:24.284Z,0
2023-03-27T22:12:28.491Z,0
2023-03-27T22:17:32.654Z,0
2023-03-27T22:22:36.803Z,0
2023-03-27T22:27:39.071Z,0
2023-03-27T22:32:43.329Z,0
2023-03-27T22:37:45.559Z,0
2023-03-27T22:42:49.667Z,0
2023-03-27T22:47:53.898Z,0
2023-03-27T22:52:58.029Z,0
2023-03-27T22:58:02.161Z,0
2023-03-27T23:03:06.418Z,0
2023-03-27T23:08:10.533Z,0
2023-03-27T23:13:14.682Z,0
2023-03-27T23:18:18.866Z,0
2023-03-27T23:23:22.996Z,0
2023-03-27T23:28:27.200Z,0
2023-03-27T23:33:31.346Z,0
2023-03-27T23:38:35.508Z,0
2023-03-27T23:43:39.675Z,0
2023-03-27T23:48:43.882Z,0
2023-03-27T23:53:48.033Z,0
2023-03-27T23:58:52.147Z,0
